createdAt,value
2022-11-06T00:00:31.427Z,4.33
2022-11-06T00:03:00.669Z,4.87
2022-11-06T00:05:47.277Z,4.58
2022-11-06T00:08:16.271Z,3.80
2022-11-06T00:10:44.626Z,3.72
2022-11-06T00:13:12.864Z,3.75
2022-11-06T00:15:41.171Z,3.70
2022-11-06T00:20:37.591Z,4.08
2022-11-06T00:23:05.850Z,4.53
2022-11-06T00:25:34.070Z,3.77
2022-11-06T00:28:02.301Z,3.72
2022-11-06T00:30:30.735Z,3.83
2022-11-06T00:33:00.714Z,3.90
2022-11-06T00:35:33.195Z,9.48
2022-11-06T00:38:29.861Z,3.83
2022-11-06T00:41:05.668Z,3.27
2022-11-06T00:43:37.511Z,4.00
2022-11-06T00:46:07.853Z,3.15
2022-11-06T00:48:48.598Z,3.85
2022-11-06T00:51:19.882Z,3.22
2022-11-06T00:54:03.304Z,3.65
2022-11-06T00:56:35.258Z,4.00
2022-11-06T00:59:10.889Z,3.77
2022-11-06T01:02:08.291Z,3.37
2022-11-06T01:04:38.266Z,3.05
2022-11-06T01:07:06.808Z,3.90
2022-11-06T01:09:35.521Z,3.42
2022-11-06T01:12:14.571Z,2.95
2022-11-06T01:14:56.350Z,2.98
2022-11-06T01:17:26.453Z,3.08
2022-11-06T01:19:58.084Z,3.37
2022-11-06T01:22:26.812Z,2.90
2022-11-06T01:25:02.281Z,2.33
2022-11-06T01:27:33.503Z,2.42
2022-11-06T01:30:02.204Z,2.70
2022-11-06T01:32:33.260Z,2.85
2022-11-06T01:35:02.537Z,2.62
2022-11-06T01:37:36.747Z,2.60
2022-11-06T01:43:10.958Z,2.50
2022-11-06T01:46:56.614Z,3.20
2022-11-06T01:54:52.588Z,3.45
2022-11-06T02:01:02.533Z,2.87
2022-11-06T02:07:05.919Z,2.85
2022-11-06T02:09:40.683Z,2.72
2022-11-06T02:12:13.347Z,2.45
2022-11-06T02:20:41.393Z,2.20
2022-11-06T02:23:37.041Z,2.52
2022-11-06T02:26:13.290Z,3.02
2022-11-06T02:29:13.094Z,2.70
2022-11-06T02:32:07.752Z,2.60
2022-11-06T02:34:59.085Z,2.62
2022-11-06T02:43:18.261Z,3.95
2022-11-06T02:46:07.844Z,2.75
2022-11-06T02:48:59.317Z,2.47
2022-11-06T02:51:35.787Z,2.55
2022-11-06T02:54:14.584Z,3.00
2022-11-06T02:57:10.405Z,2.40
2022-11-06T02:59:44.185Z,3.02
2022-11-06T03:05:29.283Z,2.12
2022-11-06T03:08:01.712Z,2.58
2022-11-06T03:10:31.449Z,2.20
2022-11-06T03:13:03.494Z,2.60
2022-11-06T03:15:35.605Z,2.77
2022-11-06T03:18:11.450Z,2.30
2022-11-06T03:20:53.755Z,1.98
2022-11-06T03:26:40.626Z,2.47
2022-11-06T03:29:16.037Z,2.60
2022-11-06T03:31:45.863Z,2.40
2022-11-06T03:34:15.586Z,2.72
2022-11-06T03:36:45.407Z,2.25
2022-11-06T03:39:17.791Z,2.33
2022-11-06T03:41:50.207Z,2.42
2022-11-06T03:44:20.213Z,2.50
2022-11-06T03:46:49.962Z,2.50
2022-11-06T03:49:19.794Z,2.17
2022-11-06T03:51:52.344Z,2.00
2022-11-06T03:54:28.124Z,2.20
2022-11-06T03:56:58.075Z,2.05
2022-11-06T03:59:28.913Z,2.10
2022-11-06T04:01:57.536Z,2.05
2022-11-06T04:04:27.321Z,2.47
2022-11-06T04:07:00.126Z,2.25
2022-11-06T04:10:05.604Z,2.08
2022-11-06T04:12:53.349Z,2.17
2022-11-06T04:15:22.127Z,2.50
2022-11-06T04:17:50.411Z,2.92
2022-11-06T04:20:38.089Z,2.50
2022-11-06T04:23:13.833Z,2.50
2022-11-06T04:26:01.702Z,2.33
2022-11-06T04:28:48.023Z,2.20
2022-11-06T04:31:23.693Z,2.50
2022-11-06T04:33:59.800Z,2.65
2022-11-06T04:37:04.014Z,2.15
2022-11-06T04:39:33.765Z,2.55
2022-11-06T04:42:09.305Z,2.58
2022-11-06T04:44:42.183Z,2.47
2022-11-06T04:47:11.925Z,2.10
2022-11-06T04:49:41.425Z,2.17
2022-11-06T04:52:17.046Z,1.82
2022-11-06T04:54:48.161Z,1.82
2022-11-06T04:57:16.547Z,2.10
2022-11-06T04:59:47.699Z,1.75
2022-11-06T05:02:16.049Z,2.12
2022-11-06T05:04:48.044Z,1.92
2022-11-06T05:07:17.508Z,2.12
2022-11-06T05:09:48.760Z,1.70
2022-11-06T05:12:17.010Z,2.55
2022-11-06T05:14:45.232Z,1.98
2022-11-06T05:17:13.491Z,1.92
2022-11-06T05:19:41.723Z,2.27
2022-11-06T05:22:30.735Z,1.90
2022-11-06T05:24:58.949Z,2.08
2022-11-06T05:27:27.131Z,2.17
2022-11-06T05:29:55.383Z,1.80
2022-11-06T05:32:25.225Z,1.55
2022-11-06T05:34:53.437Z,2.10
2022-11-06T05:37:21.704Z,2.00
2022-11-06T05:39:49.920Z,2.20
2022-11-06T05:42:18.131Z,1.90
2022-11-06T05:44:46.391Z,1.62
2022-11-06T05:47:14.652Z,1.87
2022-11-06T05:49:42.945Z,1.55
2022-11-06T05:52:11.139Z,2.00
2022-11-06T05:54:39.427Z,1.92
2022-11-06T05:57:07.568Z,1.72
2022-11-06T05:59:35.867Z,1.57
2022-11-06T06:02:05.655Z,1.75
2022-11-06T06:04:34.009Z,1.75
2022-11-06T06:07:02.302Z,2.02
2022-11-06T06:09:30.532Z,1.80
2022-11-06T06:11:58.739Z,1.82
2022-11-06T06:14:26.957Z,2.05
2022-11-06T06:16:55.172Z,1.90
2022-11-06T06:19:23.512Z,1.98
2022-11-06T06:21:51.692Z,1.55
2022-11-06T06:24:20.000Z,2.33
2022-11-06T06:26:57.127Z,1.90
2022-11-06T06:29:25.350Z,1.90
2022-11-06T06:31:53.552Z,1.60
2022-11-06T06:34:21.797Z,2.00
2022-11-06T06:36:51.430Z,1.72
2022-11-06T06:39:20.196Z,1.98
2022-11-06T06:41:49.160Z,1.90
2022-11-06T06:44:17.810Z,1.85
2022-11-06T06:46:46.027Z,1.57
2022-11-06T06:49:14.261Z,1.90
2022-11-06T06:52:01.829Z,1.67
2022-11-06T06:54:30.027Z,1.22
2022-11-06T06:56:58.296Z,1.80
2022-11-06T06:59:32.475Z,2.08
2022-11-06T07:02:00.802Z,1.65
2022-11-06T07:04:29.058Z,1.80
2022-11-06T07:06:57.300Z,1.80
2022-11-06T07:09:25.591Z,2.10
2022-11-06T07:11:53.840Z,1.90
2022-11-06T07:14:22.042Z,1.90
2022-11-06T07:16:53.752Z,1.90
2022-11-06T07:19:20.175Z,1.90
2022-11-06T07:21:50.710Z,3.35
2022-11-06T07:24:19.068Z,2.02
2022-11-06T07:26:47.815Z,2.02
2022-11-06T07:29:16.111Z,2.22
2022-11-06T07:31:44.320Z,2.22
2022-11-06T07:34:12.656Z,2.55
2022-11-06T07:36:40.863Z,1.80
2022-11-06T07:39:09.111Z,2.42
2022-11-06T07:41:37.858Z,2.12
2022-11-06T07:44:06.213Z,1.90
2022-11-06T07:46:34.474Z,1.75
2022-11-06T07:49:02.740Z,1.95
2022-11-06T07:51:30.957Z,3.02
2022-11-06T07:53:59.178Z,2.72
2022-11-06T07:56:27.363Z,2.45
2022-11-06T07:58:55.570Z,1.87
2022-11-06T08:01:23.933Z,1.60
2022-11-06T08:03:52.555Z,2.55
2022-11-06T08:06:20.781Z,1.87
2022-11-06T08:08:49.240Z,1.70
2022-11-06T08:11:17.425Z,1.95
2022-11-06T08:13:45.635Z,1.82
2022-11-06T08:16:14.713Z,2.10
2022-11-06T08:18:43.373Z,1.70
2022-11-06T08:21:11.561Z,1.95
2022-11-06T08:26:07.266Z,2.00
2022-11-06T08:28:35.466Z,1.67
2022-11-06T08:31:04.564Z,2.08
2022-11-06T08:33:32.856Z,1.47
2022-11-06T08:36:04.306Z,1.82
2022-11-06T08:38:32.573Z,1.52
2022-11-06T08:41:02.364Z,1.60
2022-11-06T08:43:30.563Z,2.98
2022-11-06T08:45:59.736Z,2.90
2022-11-06T08:48:28.972Z,2.22
2022-11-06T08:50:57.185Z,2.60
2022-11-06T08:53:25.456Z,2.02
2022-11-06T08:55:53.715Z,1.67
2022-11-06T08:58:21.935Z,1.77
2022-11-06T09:00:50.353Z,2.55
2022-11-06T09:03:18.671Z,1.75
2022-11-06T09:05:46.893Z,2.05
2022-11-06T09:13:10.746Z,2.10
2022-11-06T09:15:39.214Z,2.02
2022-11-06T09:18:07.607Z,2.10
2022-11-06T09:21:03.914Z,2.00
2022-11-06T09:23:22.446Z,2.40
2022-11-06T09:25:50.714Z,1.72
2022-11-06T09:28:18.968Z,2.33
2022-11-06T09:30:47.200Z,2.30
2022-11-06T09:33:15.811Z,2.00
2022-11-06T09:35:44.493Z,2.20
2022-11-06T09:38:13.351Z,2.55
2022-11-06T09:40:52.311Z,2.10
2022-11-06T09:46:19.418Z,1.90
2022-11-06T09:48:49.185Z,2.70
2022-11-06T09:51:27.954Z,2.10
2022-11-06T09:53:57.819Z,2.50
2022-11-06T09:56:27.850Z,1.80
2022-11-06T09:58:56.314Z,2.10
2022-11-06T10:01:27.558Z,2.20
2022-11-06T10:03:58.177Z,2.02
2022-11-06T10:06:26.869Z,2.30
2022-11-06T10:08:57.464Z,2.92
2022-11-06T10:11:29.550Z,2.00
2022-11-06T10:14:04.659Z,1.92
2022-11-06T10:16:36.768Z,1.87
2022-11-06T10:19:20.698Z,2.10
2022-11-06T10:21:59.203Z,2.00
2022-11-06T10:24:54.620Z,2.00
2022-11-06T10:27:27.199Z,2.37
2022-11-06T10:30:12.230Z,1.80
2022-11-06T10:32:56.388Z,1.60
2022-11-06T10:35:29.387Z,2.33
2022-11-06T10:38:11.595Z,2.00
2022-11-06T10:40:40.609Z,2.08
2022-11-06T10:43:27.155Z,1.90
2022-11-06T10:45:56.882Z,2.00
2022-11-06T10:48:52.172Z,1.75
2022-11-06T10:51:42.121Z,2.00
2022-11-06T10:54:05.863Z,2.42
2022-11-06T10:56:39.183Z,2.10
2022-11-06T10:59:07.545Z,2.20
2022-11-06T11:01:37.427Z,2.02
2022-11-06T11:04:05.857Z,2.33
2022-11-06T11:11:30.143Z,2.22
2022-11-06T11:13:59.896Z,1.35
2022-11-06T11:16:29.668Z,2.40
2022-11-06T11:18:59.484Z,2.08
2022-11-06T11:21:31.195Z,2.70
2022-11-06T11:24:08.533Z,2.90
2022-11-06T11:26:44.584Z,3.05
2022-11-06T11:29:23.166Z,2.25
2022-11-06T11:31:52.977Z,2.80
2022-11-06T11:34:28.798Z,2.67
2022-11-06T11:36:58.774Z,2.50
2022-11-06T11:39:28.492Z,2.52
2022-11-06T11:41:58.237Z,2.20
2022-11-06T11:49:27.819Z,2.70
2022-11-06T11:51:57.171Z,2.90
2022-11-06T11:54:32.072Z,2.58
2022-11-06T11:57:05.136Z,2.58
2022-11-06T11:59:39.625Z,2.22
2022-11-06T12:02:15.729Z,2.40
2022-11-06T12:04:45.626Z,2.70
2022-11-06T12:07:24.466Z,2.37
2022-11-06T12:09:52.844Z,2.40
2022-11-06T12:12:22.993Z,2.00
2022-11-06T12:15:08.102Z,2.42
2022-11-06T12:17:38.030Z,2.22
2022-11-06T12:20:09.143Z,2.77
2022-11-06T12:22:38.986Z,2.10
2022-11-06T12:25:11.478Z,2.30
2022-11-06T12:27:41.198Z,3.35
2022-11-06T12:30:17.035Z,1.82
2022-11-06T12:32:55.894Z,3.17
2022-11-06T12:35:31.494Z,2.75
2022-11-06T12:38:01.311Z,2.35
2022-11-06T12:40:31.015Z,2.67
2022-11-06T12:43:00.996Z,1.92
2022-11-06T12:45:43.036Z,1.70
2022-11-06T12:48:13.312Z,2.43
2022-11-06T12:50:46.384Z,2.58
2022-11-06T12:53:22.083Z,2.10
2022-11-06T12:55:53.526Z,2.30
2022-11-06T12:58:28.906Z,2.15
2022-11-06T13:01:11.314Z,2.33
2022-11-06T13:03:44.092Z,2.10
2022-11-06T13:08:43.547Z,1.47
2022-11-06T13:11:19.237Z,1.90
2022-11-06T13:14:07.276Z,1.85
2022-11-06T13:16:37.023Z,1.87
2022-11-06T13:19:06.759Z,1.92
2022-11-06T13:21:55.017Z,2.55
2022-11-06T13:24:27.407Z,2.15
2022-11-06T13:26:59.102Z,2.10
2022-11-06T13:29:27.445Z,1.98
2022-11-06T13:31:57.204Z,2.33
2022-11-06T13:34:26.958Z,2.10
2022-11-06T13:37:16.055Z,2.47
2022-11-06T13:39:53.183Z,1.25
2022-11-06T13:42:32.748Z,2.37
2022-11-06T13:45:07.708Z,4.70
2022-11-06T13:47:50.554Z,2.20
2022-11-06T13:50:14.414Z,2.30
2022-11-06T13:52:49.825Z,2.23
2022-11-06T13:55:27.938Z,2.33
2022-11-06T13:58:13.480Z,1.90
2022-11-06T14:00:43.407Z,2.10
2022-11-06T14:03:19.935Z,2.20
2022-11-06T14:06:16.695Z,3.20
2022-11-06T14:08:46.367Z,2.10
2022-11-06T14:11:28.070Z,2.70
2022-11-06T14:14:06.121Z,3.22
2022-11-06T14:16:38.948Z,2.80
2022-11-06T14:19:14.184Z,2.45
2022-11-06T14:21:47.039Z,2.90
2022-11-06T14:25:00.012Z,3.70
2022-11-06T14:27:44.269Z,3.67
2022-11-06T14:30:38.397Z,3.10
2022-11-06T14:32:58.872Z,3.75
2022-11-06T14:35:34.093Z,3.90
2022-11-06T14:38:13.104Z,2.60
2022-11-06T14:40:41.626Z,2.98
2022-11-06T14:43:26.056Z,2.90
2022-11-06T14:45:55.828Z,3.98
2022-11-06T14:48:28.365Z,3.27
2022-11-06T14:50:57.118Z,3.43
2022-11-06T14:53:27.845Z,4.08
2022-11-06T14:56:00.169Z,2.42
2022-11-06T14:58:30.075Z,1.82
2022-11-06T15:04:10.382Z,3.25
2022-11-06T15:07:03.241Z,3.75
2022-11-06T15:09:43.289Z,2.50
2022-11-06T15:12:28.248Z,2.83
2022-11-06T15:14:57.618Z,3.30
2022-11-06T15:17:29.475Z,3.22
2022-11-06T15:20:00.580Z,3.93
2022-11-06T15:22:32.871Z,2.62
2022-11-06T16:12:10.300Z,3.47
2022-11-06T16:14:51.421Z,2.35
2022-11-06T16:17:27.398Z,2.40
2022-11-06T16:19:57.284Z,2.22
2022-11-06T16:22:32.905Z,2.40
2022-11-06T16:25:12.006Z,2.50
2022-11-06T16:27:41.976Z,3.22
2022-11-06T16:30:11.875Z,2.33
2022-11-06T16:32:43.114Z,4.78
2022-11-06T16:35:34.816Z,6.12
2022-11-06T16:38:39.912Z,12.78
2022-11-06T16:40:52.066Z,4.17
2022-11-06T16:43:24.246Z,5.12
2022-11-06T16:45:54.082Z,2.45
2022-11-06T16:48:34.264Z,2.77
2022-11-06T16:51:04.022Z,4.40
2022-11-06T16:53:37.010Z,5.50
2022-11-06T16:56:08.338Z,4.97
2022-11-06T16:58:53.080Z,3.92
2022-11-06T17:01:22.084Z,2.70
2022-11-06T17:03:59.086Z,3.47
2022-11-06T17:06:28.827Z,2.70
2022-11-06T17:08:58.528Z,2.10
2022-11-06T17:11:26.762Z,2.12
2022-11-06T17:13:54.974Z,2.10
2022-11-06T17:16:27.619Z,5.95
2022-11-06T17:21:25.179Z,2.83
2022-11-06T17:23:53.594Z,3.85
2022-11-06T17:26:26.328Z,3.37
2022-11-06T17:31:22.138Z,3.25
2022-11-06T17:33:50.455Z,3.50
2022-11-06T17:36:20.449Z,4.72
2022-11-06T17:38:49.328Z,3.35
2022-11-06T17:41:30.161Z,4.08
2022-11-06T17:44:03.398Z,3.45
2022-11-06T17:46:32.704Z,3.52
2022-11-06T17:49:02.147Z,3.33
2022-11-06T17:51:49.054Z,3.92
2022-11-06T17:54:18.032Z,3.27
2022-11-06T17:56:46.325Z,2.90
2022-11-06T17:59:14.797Z,3.05
2022-11-06T18:01:43.729Z,8.13
2022-11-06T18:04:12.025Z,3.67
2022-11-06T18:06:40.303Z,3.45
2022-11-06T18:09:08.545Z,2.40
2022-11-06T18:11:36.789Z,3.12
2022-11-06T18:14:05.134Z,2.90
2022-11-06T18:16:38.484Z,3.27
2022-11-06T18:19:08.106Z,3.15
2022-11-06T18:21:36.310Z,3.98
2022-11-06T18:24:23.915Z,2.90
2022-11-06T18:26:52.480Z,3.50
2022-11-06T18:29:20.890Z,3.10
2022-11-06T18:31:49.091Z,3.80
2022-11-06T18:34:20.769Z,3.47
2022-11-06T18:36:50.565Z,3.62
2022-11-06T18:39:19.189Z,3.90
2022-11-06T18:41:47.482Z,3.85
2022-11-06T18:44:16.965Z,3.77
2022-11-06T18:46:45.843Z,4.62
2022-11-06T18:49:14.125Z,4.25
2022-11-06T18:51:42.663Z,3.17
2022-11-06T18:54:11.842Z,4.75
2022-11-06T18:56:40.037Z,2.87
2022-11-06T18:59:09.188Z,3.77
2022-11-06T19:01:37.553Z,3.30
2022-11-06T19:04:06.212Z,3.05
2022-11-06T19:06:34.652Z,3.22
2022-11-06T19:09:02.890Z,3.58
2022-11-06T19:11:31.166Z,3.90
2022-11-06T19:13:59.465Z,3.10
2022-11-06T19:16:27.665Z,2.67
2022-11-06T19:21:25.997Z,2.40
2022-11-06T19:24:00.274Z,2.30
2022-11-06T19:26:31.050Z,3.15
2022-11-06T19:28:56.080Z,2.83
2022-11-06T19:31:25.982Z,2.60
2022-11-06T19:33:54.162Z,2.80
2022-11-06T19:36:43.199Z,2.30
2022-11-06T19:39:11.402Z,2.60
2022-11-06T19:41:39.615Z,2.08
2022-11-06T19:44:08.965Z,2.35
2022-11-06T19:46:37.260Z,3.70
2022-11-06T19:49:06.135Z,2.55
2022-11-06T19:51:35.112Z,2.30
2022-11-06T19:54:05.454Z,2.52
2022-11-06T19:56:34.150Z,2.00
2022-11-06T19:59:02.355Z,1.92
2022-11-06T20:01:32.304Z,3.35
2022-11-06T20:04:01.686Z,2.50
2022-11-06T20:06:29.969Z,2.30
2022-11-06T20:08:58.259Z,2.30
2022-11-06T20:11:26.493Z,2.77
2022-11-06T20:13:54.708Z,2.90
2022-11-06T20:16:23.189Z,2.20
2022-11-06T20:18:52.564Z,2.00
2022-11-06T20:21:21.422Z,2.45
2022-11-06T20:23:49.829Z,1.77
2022-11-06T20:26:18.434Z,2.02
2022-11-06T20:28:48.275Z,2.08
2022-11-06T20:31:18.701Z,1.98
2022-11-06T20:33:47.359Z,1.80
2022-11-06T20:36:20.372Z,1.50
2022-11-06T20:38:48.600Z,1.95
2022-11-06T20:41:17.045Z,2.20
2022-11-06T20:43:45.810Z,1.75
2022-11-06T20:46:15.018Z,2.10
2022-11-06T20:48:44.746Z,1.70
2022-11-06T20:51:14.493Z,2.00
2022-11-06T20:53:42.762Z,2.00
2022-11-06T20:56:12.363Z,1.82
2022-11-06T20:58:40.594Z,2.27
2022-11-06T21:01:10.439Z,2.10
2022-11-06T21:03:39.814Z,2.25
2022-11-06T21:06:08.497Z,1.90
2022-11-06T21:08:37.841Z,1.90
2022-11-06T21:11:12.672Z,1.98
2022-11-06T21:13:41.648Z,2.40
2022-11-06T21:16:11.308Z,2.15
2022-11-06T21:18:40.662Z,2.65
2022-11-06T21:21:10.264Z,2.45
2022-11-06T21:23:38.976Z,3.20
2022-11-06T21:26:28.031Z,2.80
2022-11-06T21:28:56.614Z,2.02
2022-11-06T21:31:26.388Z,2.90
2022-11-06T21:33:55.762Z,3.47
2022-11-06T21:36:25.508Z,3.87
2022-11-06T21:38:55.246Z,1.90
2022-11-06T21:41:25.270Z,2.20
2022-11-06T21:43:53.708Z,1.55
2022-11-06T21:46:22.271Z,1.87
2022-11-06T21:48:51.101Z,1.70
2022-11-06T21:51:21.266Z,1.85
2022-11-06T21:54:07.272Z,1.80
2022-11-06T21:56:35.978Z,1.60
2022-11-06T21:59:05.500Z,1.57
2022-11-06T22:01:33.887Z,1.82
2022-11-06T22:04:02.164Z,1.50
2022-11-06T22:06:30.423Z,1.67
2022-11-06T22:09:00.307Z,1.57
2022-11-06T22:11:30.006Z,1.90
2022-11-06T22:13:59.312Z,2.00
2022-11-06T22:16:32.183Z,1.32
2022-11-06T22:19:00.426Z,2.00
2022-11-06T22:21:29.617Z,1.50
2022-11-06T22:23:57.850Z,1.75
2022-11-06T22:26:27.739Z,1.42
2022-11-06T22:28:56.815Z,1.40
2022-11-06T22:31:25.092Z,1.42
2022-11-06T22:33:54.106Z,1.70
2022-11-06T22:36:23.589Z,1.32
2022-11-06T22:38:52.237Z,1.40
2022-11-06T22:41:22.109Z,1.50
2022-11-06T22:43:50.632Z,1.70
2022-11-06T22:46:20.016Z,1.35
2022-11-06T22:48:48.631Z,1.52
2022-11-06T22:51:20.973Z,1.57
2022-11-06T22:53:50.217Z,1.20
2022-11-06T22:56:18.589Z,1.40
2022-11-06T22:58:46.852Z,1.25
2022-11-06T23:01:15.058Z,1.20
2022-11-06T23:03:43.269Z,1.55
2022-11-06T23:06:11.496Z,1.50
2022-11-06T23:08:44.211Z,1.50
2022-11-06T23:11:11.457Z,1.60
2022-11-06T23:13:40.442Z,1.82
2022-11-06T23:16:12.831Z,1.55
2022-11-06T23:18:41.027Z,1.40
2022-11-06T23:21:17.064Z,1.47
2022-11-06T23:23:45.815Z,1.10
2022-11-06T23:26:24.318Z,1.35
2022-11-06T23:28:54.212Z,1.22
2022-11-06T23:31:22.384Z,1.35
2022-11-06T23:33:50.833Z,1.70
2022-11-06T23:36:19.064Z,1.25
2022-11-06T23:38:47.316Z,1.35
2022-11-06T23:41:34.355Z,1.60
2022-11-06T23:44:02.827Z,1.20
2022-11-06T23:46:32.197Z,1.35
2022-11-06T23:49:00.554Z,1.17
2022-11-06T23:51:28.831Z,1.05
2022-11-06T23:53:57.037Z,1.30
2022-11-06T23:56:25.269Z,1.10
2022-11-06T23:59:04.948Z,1.37
